Terminal Aerodrome Forecast
Issued by NWS

Home | Current Version | Previous Version | Text Only | Print | Product List | Glossary On
Versions: 1 2 3 4 5 6 7 8 9 10 11 12
492
FTUS45 KRIW 232333
TAFLND
TAF
KLND 232333Z 2400/2424 36011KT 3/4SM -SN SCT007 OVC012
     FM240700 VRB06KT 3SM -SN BR BKN012 OVC018
     FM241400 VRB04KT 5SM -SN SCT012 OVC020
     FM241900 03005KT P6SM VCSH BKN025
     FM242200 06007KT P6SM SCT025 BKN060=

USA.gov is the U.S. government's official web portal to all federal, state and local government web resources and services.